Maersk Visby — 9V8827 — position and weather

sailwx.info

Track history (hours):
 
Tides and Currents Weather Stations Pressure Air Temp Water Temp Dewpoint Dewpoint Depression Visibility Wind Speed Wind Dir Waves Ship Positions

Maersk Visby

Last reported at 2016-Feb-06 07:11 UTC. Time now 2016-Feb-10 02:38 UTC.
Position S 33°00' E 017°12'.

Length 180 m; draft 9.2 m.

Type: Ship (hazmat cat A). MMSI: 564979000.

Date/timePositionNaut miles runAvg speedWind from/ knotsBaromVisibWave heightAir tempDewpointWater temp
2016-Feb-06 07:11S 33°00' E 017°12'1016.3
2016-Feb-06 06:33S 33°08' E 017°21'1615.7
2016-Feb-06 05:33S 33°18' E 017°35'1615.8
2016-Feb-06 04:32S 33°29' E 017°49'1615.9
2016-Feb-06 03:33S 33°37' E 018°05'1616.0
2016-Feb-06 02:34S 33°49' E 018°18'9 8.7
2016-Feb-06 01:33S 33°55' E 018°26'0 0.1
2016-Feb-06 00:32S 33°55' E 018°26'0 0.0
2016-Feb-05 23:32S 33°55' E 018°26'0 0.0
2016-Feb-05 22:32S 33°55' E 018°26'0 0.0
2016-Feb-05 21:32S 33°55' E 018°26'0 0.0
2016-Feb-05 20:32S 33°55' E 018°26'0 0.0
2016-Feb-05 19:32S 33°55' E 018°26'0 0.0
2016-Feb-05 18:32S 33°55' E 018°26'0 0.0
2016-Feb-05 17:32S 33°55' E 018°26'0 0.0
2016-Feb-05 16:32S 33°55' E 018°26'0 0.0
2016-Feb-05 15:32S 33°55' E 018°26'0 0.0
2016-Feb-05 14:32S 33°55' E 018°26'0 0.0
2016-Feb-05 13:32S 33°55' E 018°26'0 0.0
2016-Feb-05 12:32S 33°55' E 018°26'0 0.0
2016-Feb-05 11:32S 33°55' E 018°26'0 0.0
2016-Feb-05 10:32S 33°55' E 018°26'0 0.0
2016-Feb-05 09:32S 33°55' E 018°26'0 0.0
2016-Feb-05 08:32S 33°55' E 018°26'0 0.0
2016-Feb-05 07:32S 33°55' E 018°26'1 1.4
2016-Feb-05 06:33S 33°53' E 018°26'2 1.8
2016-Feb-05 05:33S 33°52' E 018°24'4 4.5
2016-Feb-05 04:33S 33°54' E 018°19'8 7.6
2016-Feb-05 03:33S 34°01' E 018°15'1614.0
2016-Feb-05 02:27S 34°17' E 018°15'1314.7
2016-Feb-05 01:33S 34°28' E 018°24'  
2016-Feb-02 20:33S 30°20' E 030°52'1413.6
2016-Feb-02 19:33S 30°08' E 030°60'1414.1
2016-Feb-02 18:34S 29°56' E 031°08'6 6.1
2016-Feb-02 17:34S 29°52' E 031°02'2 1.4
2016-Feb-02 16:22S 29°53' E 031°00'0 0.0
2016-Feb-02 15:31S 29°53' E 031°00'0 0.0
2016-Feb-02 14:31S 29°53' E 031°00'0 0.0
2016-Feb-02 13:31S 29°53' E 031°00'0 0.0
2016-Feb-02 12:28S 29°53' E 031°00'0 0.0
2016-Feb-02 11:31S 29°53' E 031°00'0 0.0
2016-Feb-02 10:31S 29°53' E 031°00'0 0.0
2016-Feb-02 09:22S 29°53' E 031°00'0 0.0
2016-Feb-02 08:31S 29°53' E 031°00'0 0.0
2016-Feb-02 07:28S 29°53' E 031°00'0 0.0
2016-Feb-02 06:31S 29°53' E 031°00'17 0.5
2016-Jan-31 19:17S 29°40' E 031°12'0 0.0
2016-Jan-31 18:32S 29°40' E 031°12'0 0.0
2016-Jan-31 17:32S 29°40' E 031°12'0 0.0
2016-Jan-31 16:32S 29°40' E 031°12'0 0.0
2016-Jan-31 15:32S 29°40' E 031°12'0 0.0
2016-Jan-31 14:32S 29°40' E 031°12'0 0.0
2016-Jan-31 13:32S 29°40' E 031°12'0 0.0
2016-Jan-31 12:32S 29°40' E 031°12'0 0.0
2016-Jan-31 11:32S 29°40' E 031°12'0 0.0
2016-Jan-31 10:32S 29°40' E 031°12'0 0.0
2016-Jan-31 09:32S 29°40' E 031°12'0 0.0
2016-Jan-31 08:32S 29°40' E 031°12'0 0.0
2016-Jan-31 07:32S 29°40' E 031°12'0 0.0
2016-Jan-31 06:32S 29°40' E 031°12'0 0.0
2016-Jan-31 05:32S 29°40' E 031°12'0 0.0
2016-Jan-31 04:32S 29°40' E 031°12'0 0.0
2016-Jan-31 03:32S 29°40' E 031°12'0 0.0
2016-Jan-31 02:32S 29°40' E 031°12'0 0.0
2016-Jan-31 01:32S 29°40' E 031°12'0 0.0
2016-Jan-31 00:32S 29°40' E 031°12'0 0.0
2016-Jan-30 23:32S 29°40' E 031°12'0 0.0
2016-Jan-30 22:32S 29°40' E 031°12'0 0.0
2016-Jan-30 21:32S 29°40' E 031°12'0 0.0
2016-Jan-30 20:32S 29°40' E 031°12'0 0.0
2016-Jan-30 19:32S 29°40' E 031°12'0 0.0
2016-Jan-30 18:32S 29°40' E 031°12'0 0.0
2016-Jan-30 17:32S 29°40' E 031°12'0 0.0
2016-Jan-30 16:32S 29°40' E 031°12'0 0.0
2016-Jan-30 15:32S 29°40' E 031°12'0 0.0
2016-Jan-30 14:32S 29°40' E 031°12'0 0.0
2016-Jan-30 13:32S 29°40' E 031°12'0 0.0
2016-Jan-30 12:32S 29°40' E 031°12'0 0.0
2016-Jan-30 11:32S 29°40' E 031°12'0 0.0
2016-Jan-30 10:32S 29°40' E 031°12'0 0.0
2016-Jan-30 09:32S 29°40' E 031°12'0 0.0
2016-Jan-30 08:32S 29°40' E 031°12'0 0.0
2016-Jan-30 07:32S 29°40' E 031°12'0 0.0
2016-Jan-30 06:32S 29°40' E 031°12'0 0.0
2016-Jan-30 05:32S 29°40' E 031°12'0 0.0
2016-Jan-30 04:32S 29°40' E 031°12'0 0.0
2016-Jan-30 03:32S 29°40' E 031°12'0 0.1
2016-Jan-30 02:32S 29°39' E 031°12'0 0.0
2016-Jan-30 01:32S 29°40' E 031°12'0 0.1
2016-Jan-30 00:32S 29°39' E 031°12'0 0.0
2016-Jan-29 23:32S 29°39' E 031°12'0 0.0
2016-Jan-29 22:32S 29°39' E 031°12'0 0.1
2016-Jan-29 21:32S 29°39' E 031°12'0 0.1
2016-Jan-29 20:32S 29°40' E 031°12'0 0.1
2016-Jan-29 19:32S 29°40' E 031°12'0 0.0
2016-Jan-29 18:32S 29°40' E 031°12'0 0.0
2016-Jan-29 17:32S 29°40' E 031°12'0 0.0
2016-Jan-29 16:32S 29°40' E 031°12'0 0.0
2016-Jan-29 15:32S 29°39' E 031°12'0 0.0
2016-Jan-29 14:32S 29°39' E 031°12'0 0.0
2016-Jan-29 13:32S 29°39' E 031°12'0 0.0
2016-Jan-29 12:32S 29°39' E 031°12'0 0.0
2016-Jan-29 11:32S 29°39' E 031°12'0 0.0
2016-Jan-29 10:32S 29°39' E 031°12'0 0.0
2016-Jan-29 09:32S 29°39' E 031°12'0 0.0
2016-Jan-29 08:32S 29°39' E 031°12'0 0.0
2016-Jan-29 07:32S 29°39' E 031°12'0 0.1
2016-Jan-29 06:32S 29°39' E 031°12'0 0.0
2016-Jan-29 05:32S 29°40' E 031°12'0 0.0
2016-Jan-29 04:32S 29°39' E 031°12'0 0.0
2016-Jan-29 03:32S 29°40' E 031°12'0 0.0
2016-Jan-29 02:32S 29°39' E 031°12'0 0.0
2016-Jan-29 01:32S 29°39' E 031°12'0 0.0
2016-Jan-29 00:32S 29°40' E 031°12'0 0.0
2016-Jan-28 23:32S 29°39' E 031°12'0 0.0
2016-Jan-28 22:32S 29°39' E 031°12'0 0.0
2016-Jan-28 21:32S 29°39' E 031°12'0 0.0
2016-Jan-28 20:32S 29°39' E 031°12'0 0.0
2016-Jan-28 19:32S 29°39' E 031°12'0 0.0
2016-Jan-28 18:32S 29°39' E 031°12'0 0.0
2016-Jan-28 17:32S 29°39' E 031°12'0 0.0
2016-Jan-28 16:32S 29°39' E 031°12'0 0.0
2016-Jan-28 15:32S 29°39' E 031°12'0 0.0
2016-Jan-28 14:32S 29°39' E 031°12'0 0.0
2016-Jan-28 13:32S 29°40' E 031°12'0 0.0
2016-Jan-28 12:32S 29°40' E 031°12'0 0.0
2016-Jan-28 11:32S 29°40' E 031°12'0 0.0
2016-Jan-28 10:32S 29°40' E 031°12'0 0.0
2016-Jan-28 09:32S 29°40' E 031°12'0 0.0
2016-Jan-28 08:32S 29°40' E 031°12'0 0.0
2016-Jan-28 07:32S 29°40' E 031°12'0 0.0
2016-Jan-28 06:32S 29°40' E 031°12'0 0.0
2016-Jan-28 05:32S 29°40' E 031°12'0 0.0
2016-Jan-28 04:32S 29°40' E 031°12'0 0.0
2016-Jan-28 03:32S 29°40' E 031°12'0 0.0
2016-Jan-28 02:32S 29°39' E 031°12'0 0.0
2016-Jan-28 01:32S 29°39' E 031°12'0 0.0
2016-Jan-28 00:32S 29°39' E 031°12'0 0.0
2016-Jan-27 23:32S 29°39' E 031°12'0 0.0
2016-Jan-27 22:32S 29°39' E 031°12'0 0.0
2016-Jan-27 21:32S 29°39' E 031°12'0 0.0
2016-Jan-27 20:32S 29°40' E 031°12'0 0.2
2016-Jan-27 19:32S 29°40' E 031°12'0 0.1
2016-Jan-27 18:32S 29°40' E 031°12'0 0.0
2016-Jan-27 17:32S 29°40' E 031°12'0 0.0
2016-Jan-27 16:32S 29°40' E 031°12'0 0.0
2016-Jan-27 15:32S 29°40' E 031°12'0 0.0
2016-Jan-27 14:32S 29°40' E 031°12'0 0.1
2016-Jan-27 13:32S 29°40' E 031°12'0 0.0
2016-Jan-27 12:29S 29°40' E 031°12'0 0.0
2016-Jan-27 11:32S 29°40' E 031°12'0 0.0
2016-Jan-27 10:32S 29°40' E 031°12'0 0.0
2016-Jan-27 09:32S 29°40' E 031°12'0 0.0
2016-Jan-27 08:32S 29°40' E 031°12'0 0.0
2016-Jan-27 07:32S 29°40' E 031°12'  
Track history (hours):
 
Tides and Currents Weather Stations Pressure Air Temp Water Temp Dewpoint Dewpoint Depression Visibility Wind Speed Wind Dir Waves Ship Positions

Maersk Visby

Last reported at 2016-Feb-06 07:11 UTC. Time now 2016-Feb-10 02:38 UTC.
Position S 33°00' E 017°12'.

Length 180 m; draft 9.2 m.

Type: Ship (hazmat cat A). MMSI: 564979000.

Date/timePositionNaut miles runAvg speedWind from/ knotsBaromVisibWave heightAir tempDewpointWater temp
2016-Feb-06 07:11S 33°00' E 017°12'1016.3
2016-Feb-06 06:33S 33°08' E 017°21'1615.7
2016-Feb-06 05:33S 33°18' E 017°35'1615.8
2016-Feb-06 04:32S 33°29' E 017°49'1615.9
2016-Feb-06 03:33S 33°37' E 018°05'1616.0
2016-Feb-06 02:34S 33°49' E 018°18'9 8.7
2016-Feb-06 01:33S 33°55' E 018°26'0 0.1
2016-Feb-06 00:32S 33°55' E 018°26'0 0.0
2016-Feb-05 23:32S 33°55' E 018°26'0 0.0
2016-Feb-05 22:32S 33°55' E 018°26'0 0.0
2016-Feb-05 21:32S 33°55' E 018°26'0 0.0
2016-Feb-05 20:32S 33°55' E 018°26'0 0.0
2016-Feb-05 19:32S 33°55' E 018°26'0 0.0
2016-Feb-05 18:32S 33°55' E 018°26'0 0.0
2016-Feb-05 17:32S 33°55' E 018°26'0 0.0
2016-Feb-05 16:32S 33°55' E 018°26'0 0.0
2016-Feb-05 15:32S 33°55' E 018°26'0 0.0
2016-Feb-05 14:32S 33°55' E 018°26'0 0.0
2016-Feb-05 13:32S 33°55' E 018°26'0 0.0
2016-Feb-05 12:32S 33°55' E 018°26'0 0.0
2016-Feb-05 11:32S 33°55' E 018°26'0 0.0
2016-Feb-05 10:32S 33°55' E 018°26'0 0.0
2016-Feb-05 09:32S 33°55' E 018°26'0 0.0
2016-Feb-05 08:32S 33°55' E 018°26'0 0.0
2016-Feb-05 07:32S 33°55' E 018°26'1 1.4
2016-Feb-05 06:33S 33°53' E 018°26'2 1.8
2016-Feb-05 05:33S 33°52' E 018°24'4 4.5
2016-Feb-05 04:33S 33°54' E 018°19'8 7.6
2016-Feb-05 03:33S 34°01' E 018°15'1614.0
2016-Feb-05 02:27S 34°17' E 018°15'1314.7
2016-Feb-05 01:33S 34°28' E 018°24'  
2016-Feb-02 20:33S 30°20' E 030°52'1413.6
2016-Feb-02 19:33S 30°08' E 030°60'1414.1
2016-Feb-02 18:34S 29°56' E 031°08'6 6.1
2016-Feb-02 17:34S 29°52' E 031°02'2 1.4
2016-Feb-02 16:22S 29°53' E 031°00'0 0.0
2016-Feb-02 15:31S 29°53' E 031°00'0 0.0
2016-Feb-02 14:31S 29°53' E 031°00'0 0.0
2016-Feb-02 13:31S 29°53' E 031°00'0 0.0
2016-Feb-02 12:28S 29°53' E 031°00'0 0.0
2016-Feb-02 11:31S 29°53' E 031°00'0 0.0
2016-Feb-02 10:31S 29°53' E 031°00'0 0.0
2016-Feb-02 09:22S 29°53' E 031°00'0 0.0
2016-Feb-02 08:31S 29°53' E 031°00'0 0.0
2016-Feb-02 07:28S 29°53' E 031°00'0 0.0
2016-Feb-02 06:31S 29°53' E 031°00'17 0.5
2016-Jan-31 19:17S 29°40' E 031°12'0 0.0
2016-Jan-31 18:32S 29°40' E 031°12'0 0.0
2016-Jan-31 17:32S 29°40' E 031°12'0 0.0
2016-Jan-31 16:32S 29°40' E 031°12'0 0.0
2016-Jan-31 15:32S 29°40' E 031°12'0 0.0
2016-Jan-31 14:32S 29°40' E 031°12'0 0.0
2016-Jan-31 13:32S 29°40' E 031°12'0 0.0
2016-Jan-31 12:32S 29°40' E 031°12'0 0.0
2016-Jan-31 11:32S 29°40' E 031°12'0 0.0
2016-Jan-31 10:32S 29°40' E 031°12'0 0.0
2016-Jan-31 09:32S 29°40' E 031°12'0 0.0
2016-Jan-31 08:32S 29°40' E 031°12'0 0.0
2016-Jan-31 07:32S 29°40' E 031°12'0 0.0
2016-Jan-31 06:32S 29°40' E 031°12'0 0.0
2016-Jan-31 05:32S 29°40' E 031°12'0 0.0
2016-Jan-31 04:32S 29°40' E 031°12'0 0.0
2016-Jan-31 03:32S 29°40' E 031°12'0 0.0
2016-Jan-31 02:32S 29°40' E 031°12'0 0.0
2016-Jan-31 01:32S 29°40' E 031°12'0 0.0
2016-Jan-31 00:32S 29°40' E 031°12'0 0.0
2016-Jan-30 23:32S 29°40' E 031°12'0 0.0
2016-Jan-30 22:32S 29°40' E 031°12'0 0.0
2016-Jan-30 21:32S 29°40' E 031°12'0 0.0
2016-Jan-30 20:32S 29°40' E 031°12'0 0.0
2016-Jan-30 19:32S 29°40' E 031°12'0 0.0
2016-Jan-30 18:32S 29°40' E 031°12'0 0.0
2016-Jan-30 17:32S 29°40' E 031°12'0 0.0
2016-Jan-30 16:32S 29°40' E 031°12'0 0.0
2016-Jan-30 15:32S 29°40' E 031°12'0 0.0
2016-Jan-30 14:32S 29°40' E 031°12'0 0.0
2016-Jan-30 13:32S 29°40' E 031°12'0 0.0
2016-Jan-30 12:32S 29°40' E 031°12'0 0.0
2016-Jan-30 11:32S 29°40' E 031°12'0 0.0
2016-Jan-30 10:32S 29°40' E 031°12'0 0.0
2016-Jan-30 09:32S 29°40' E 031°12'0 0.0
2016-Jan-30 08:32S 29°40' E 031°12'0 0.0
2016-Jan-30 07:32S 29°40' E 031°12'0 0.0
2016-Jan-30 06:32S 29°40' E 031°12'0 0.0
2016-Jan-30 05:32S 29°40' E 031°12'0 0.0
2016-Jan-30 04:32S 29°40' E 031°12'0 0.0
2016-Jan-30 03:32S 29°40' E 031°12'0 0.1
2016-Jan-30 02:32S 29°39' E 031°12'0 0.0
2016-Jan-30 01:32S 29°40' E 031°12'0 0.1
2016-Jan-30 00:32S 29°39' E 031°12'0 0.0
2016-Jan-29 23:32S 29°39' E 031°12'0 0.0
2016-Jan-29 22:32S 29°39' E 031°12'0 0.1
2016-Jan-29 21:32S 29°39' E 031°12'0 0.1
2016-Jan-29 20:32S 29°40' E 031°12'0 0.1
2016-Jan-29 19:32S 29°40' E 031°12'0 0.0
2016-Jan-29 18:32S 29°40' E 031°12'0 0.0
2016-Jan-29 17:32S 29°40' E 031°12'0 0.0
2016-Jan-29 16:32S 29°40' E 031°12'0 0.0
2016-Jan-29 15:32S 29°39' E 031°12'0 0.0
2016-Jan-29 14:32S 29°39' E 031°12'0 0.0
2016-Jan-29 13:32S 29°39' E 031°12'0 0.0
2016-Jan-29 12:32S 29°39' E 031°12'0 0.0
2016-Jan-29 11:32S 29°39' E 031°12'0 0.0
2016-Jan-29 10:32S 29°39' E 031°12'0 0.0
2016-Jan-29 09:32S 29°39' E 031°12'0 0.0
2016-Jan-29 08:32S 29°39' E 031°12'0 0.0
2016-Jan-29 07:32S 29°39' E 031°12'0 0.1
2016-Jan-29 06:32S 29°39' E 031°12'0 0.0
2016-Jan-29 05:32S 29°40' E 031°12'0 0.0
2016-Jan-29 04:32S 29°39' E 031°12'0 0.0
2016-Jan-29 03:32S 29°40' E 031°12'0 0.0
2016-Jan-29 02:32S 29°39' E 031°12'0 0.0
2016-Jan-29 01:32S 29°39' E 031°12'0 0.0
2016-Jan-29 00:32S 29°40' E 031°12'0 0.0
2016-Jan-28 23:32S 29°39' E 031°12'0 0.0
2016-Jan-28 22:32S 29°39' E 031°12'0 0.0
2016-Jan-28 21:32S 29°39' E 031°12'0 0.0
2016-Jan-28 20:32S 29°39' E 031°12'0 0.0
2016-Jan-28 19:32S 29°39' E 031°12'0 0.0
2016-Jan-28 18:32S 29°39' E 031°12'0 0.0
2016-Jan-28 17:32S 29°39' E 031°12'0 0.0
2016-Jan-28 16:32S 29°39' E 031°12'0 0.0
2016-Jan-28 15:32S 29°39' E 031°12'0 0.0
2016-Jan-28 14:32S 29°39' E 031°12'0 0.0
2016-Jan-28 13:32S 29°40' E 031°12'0 0.0
2016-Jan-28 12:32S 29°40' E 031°12'0 0.0
2016-Jan-28 11:32S 29°40' E 031°12'0 0.0
2016-Jan-28 10:32S 29°40' E 031°12'0 0.0
2016-Jan-28 09:32S 29°40' E 031°12'0 0.0
2016-Jan-28 08:32S 29°40' E 031°12'0 0.0
2016-Jan-28 07:32S 29°40' E 031°12'0 0.0
2016-Jan-28 06:32S 29°40' E 031°12'0 0.0
2016-Jan-28 05:32S 29°40' E 031°12'0 0.0
2016-Jan-28 04:32S 29°40' E 031°12'0 0.0
2016-Jan-28 03:32S 29°40' E 031°12'0 0.0
2016-Jan-28 02:32S 29°39' E 031°12'0 0.0
2016-Jan-28 01:32S 29°39' E 031°12'0 0.0
2016-Jan-28 00:32S 29°39' E 031°12'0 0.0
2016-Jan-27 23:32S 29°39' E 031°12'0 0.0
2016-Jan-27 22:32S 29°39' E 031°12'0 0.0
2016-Jan-27 21:32S 29°39' E 031°12'0 0.0
2016-Jan-27 20:32S 29°40' E 031°12'0 0.2
2016-Jan-27 19:32S 29°40' E 031°12'0 0.1
2016-Jan-27 18:32S 29°40' E 031°12'0 0.0
2016-Jan-27 17:32S 29°40' E 031°12'0 0.0
2016-Jan-27 16:32S 29°40' E 031°12'0 0.0
2016-Jan-27 15:32S 29°40' E 031°12'0 0.0
2016-Jan-27 14:32S 29°40' E 031°12'0 0.1
2016-Jan-27 13:32S 29°40' E 031°12'0 0.0
2016-Jan-27 12:29S 29°40' E 031°12'0 0.0
2016-Jan-27 11:32S 29°40' E 031°12'0 0.0
2016-Jan-27 10:32S 29°40' E 031°12'0 0.0
2016-Jan-27 09:32S 29°40' E 031°12'0 0.0
2016-Jan-27 08:32S 29°40' E 031°12'0 0.0
2016-Jan-27 07:32S 29°40' E 031°12'  

Dump ship's entire track history